Time;durP1;ratioP1;P1;durP2;ratioP2;P2;SDS_P1;SDS_P2;PMS_P1;PMS_P2;Temp;Humidity;BMP_temperature;BMP_pressure;BME280_temperature;BME280_humidity;BME280_pressure;Samples;Min_cycle;Max_cycle;Signal;HPM_P1;HPM_P2
2022/12/23 00:01:59;;;;;;;3.28;0.80;;;;;;;9.54;78.40;95727.72;4897411;29;20059;-78
2022/12/23 00:04:28;;;;;;;2.28;1.00;;;;;;;9.52;78.58;95729.72;4897503;29;20540;-78
2022/12/23 00:06:56;;;;;;;2.53;1.02;;;;;;;9.54;79.13;95722.53;4897644;29;20080;-78
2022/12/23 00:09:23;;;;;;;2.85;1.02;;;;;;;9.54;79.18;95719.91;4897420;29;20087;-78
2022/12/23 00:17:17;;;;;;;4.35;1.60;;;;;;;9.54;79.29;95712.13;4897194;29;20049;-78
2022/12/23 00:19:50;;;;;;;4.20;1.23;;;;;;;9.52;79.68;95696.69;4897048;29;20052;-78
2022/12/23 00:22:18;;;;;;;3.30;1.10;;;;;;;9.56;79.77;95704.91;4897099;29;20580;-78
2022/12/23 00:24:46;;;;;;;1.80;0.70;;;;;;;9.55;79.55;95701.47;4897489;29;20528;-78
2022/12/23 00:27:13;;;;;;;1.50;1.20;;;;;;;9.55;79.57;95692.88;4897414;29;20052;-78
2022/12/23 00:29:40;;;;;;;2.50;0.98;;;;;;;9.55;79.51;95690.28;4898454;29;20464;-78
2022/12/23 00:32:08;;;;;;;2.28;0.80;;;;;;;9.56;79.76;95676.28;4900879;29;20059;-78
2022/12/23 00:34:36;;;;;;;1.17;0.85;;;;;;;9.56;79.57;95673.66;4901075;29;20061;-78
2022/12/23 00:37:04;;;;;;;2.25;1.17;;;;;;;9.54;79.55;95688.69;4900776;29;20053;-78
2022/12/23 00:45:15;;;;;;;1.88;0.70;;;;;;;9.52;79.90;95675.06;4901137;29;20060;-78
2022/12/23 00:50:28;;;;;;;2.00;0.82;;;;;;;9.50;80.03;95670.03;4900563;29;20059;-79
2022/12/23 00:52:58;;;;;;;3.45;1.45;;;;;;;9.51;80.30;95681.25;4900632;29;20139;-78
2022/12/23 00:55:25;;;;;;;1.73;0.70;;;;;;;9.51;80.14;95684.69;4900440;29;20053;-79
2022/12/23 00:57:53;;;;;;;1.95;0.77;;;;;;;9.51;80.32;95674.25;4900469;29;20052;-79
2022/12/23 01:05:35;;;;;;;1.65;0.57;;;;;;;9.51;80.39;95682.06;4900721;29;20140;-78
2022/12/23 01:05:58;;;;;;;1.33;0.70;;;;;;;9.52;80.57;95668.03;4900134;29;20048;-78
2022/12/23 01:08:28;;;;;;;4.40;0.70;;;;;;;9.54;80.74;95667.84;4900065;29;20060;-78
2022/12/23 01:10:55;;;;;;;2.03;0.63;;;;;;;9.55;81.14;95666.84;4900368;29;20358;-79
2022/12/23 01:13:23;;;;;;;2.45;0.90;;;;;;;9.54;80.94;95665.25;4900489;29;20078;-79
2022/12/23 01:15:50;;;;;;;2.85;0.82;;;;;;;9.55;81.08;95672.03;4900218;29;20602;-78
2022/12/23 01:18:18;;;;;;;1.42;0.60;;;;;;;9.56;81.67;95678.88;4900122;29;20060;-79
2022/12/23 01:20:45;;;;;;;1.35;0.40;;;;;;;9.57;81.48;95686.47;4899998;29;20056;-78
2022/12/23 01:23:13;;;;;;;0.70;0.60;;;;;;;9.61;81.57;95681.69;4900135;29;20566;-79
2022/12/23 01:25:42;;;;;;;1.88;0.80;;;;;;;9.63;81.79;95692.69;4900295;29;20063;-78
2022/12/23 01:28:09;;;;;;;0.25;0.20;;;;;;;9.67;81.92;95697.31;4899663;29;20053;-78
2022/12/23 01:30:37;;;;;;;2.13;0.45;;;;;;;9.69;82.42;95697.13;4899970;29;20059;-78
2022/12/23 01:33:04;;;;;;;0.30;0.20;;;;;;;9.73;82.24;95694.91;4899706;29;20052;-78
2022/12/23 01:35:32;;;;;;;0.40;0.30;;;;;;;9.76;82.55;95694.53;4900299;29;20060;-79
2022/12/23 01:38:00;;;;;;;0.45;0.22;;;;;;;9.78;82.53;95685.50;4899722;29;20055;-78
2022/12/23 01:40:27;;;;;;;1.65;0.40;;;;;;;9.82;82.77;95694.53;4898887;29;20084;-78
2022/12/23 01:42:55;;;;;;;0.25;0.25;;;;;;;9.83;82.83;95695.31;4899133;29;20511;-78
2022/12/23 01:45:28;;;;;;;1.80;0.13;;;;;;;9.85;83.18;95691.50;4899564;29;20053;-78
2022/12/23 01:47:58;;;;;;;1.65;0.20;;;;;;;9.89;83.01;95694.53;4899560;29;20063;-78
2022/12/23 01:50:31;;;;;;;0.80;0.30;;;;;;;9.92;83.34;95701.94;4899675;29;20053;-79
2022/12/23 01:53:02;;;;;;;0.10;0.10;;;;;;;9.95;83.27;95695.53;4899849;29;20492;-79
2022/12/23 01:55:38;;;;;;;0.57;0.28;;;;;;;9.97;83.35;95701.34;4899763;29;20108;-79
2022/12/23 01:58:11;;;;;;;0.30;0.30;;;;;;;10.00;83.55;95706.16;4899144;29;20059;-78
2022/12/23 02:03:44;;;;;;;1.70;0.30;;;;;;;10.04;83.47;95702.16;4917654;29;20396;-79
2022/12/23 02:09:16;;;;;;;0.68;0.20;;;;;;;10.06;83.67;95711.38;4917400;29;20068;-78
2022/12/23 02:12:09;;;;;;;0.45;0.17;;;;;;;10.08;84.05;95711.19;4918394;29;20463;-79
2022/12/23 02:17:47;;;;;;;1.10;0.13;;;;;;;10.11;84.04;95726.41;4918214;29;20275;-78
2022/12/23 02:20:41;;;;;;;0.20;0.20;;;;;;;10.14;84.43;95712.19;4928681;29;20139;-79
2022/12/23 02:23:23;;;;;;;;;;;;;;;10.15;84.13;95714.59;4934000;29;20052;-79
2022/12/23 02:26:05;;;;;;;0.22;0.13;;;;;;;10.16;84.01;95724.00;4925220;29;20397;-78
2022/12/23 02:29:03;;;;;;;1.27;0.20;;;;;;;10.17;84.47;95733.44;4918122;29;20052;-79
2022/12/23 02:31:38;;;;;;;0.65;0.20;;;;;;;10.20;84.21;95743.44;4917679;29;20048;-78
2022/12/23 02:34:14;;;;;;;0.10;0.10;;;;;;;10.22;84.14;95733.63;4917829;29;20068;-79
2022/12/23 02:36:50;;;;;;;0.75;0.10;;;;;;;10.26;84.36;95734.84;4917795;29;20518;-78
2022/12/23 02:39:22;;;;;;;0.50;0.10;;;;;;;10.29;84.26;95746.69;4917672;29;20059;-79
2022/12/23 02:41:57;;;;;;;1.27;0.10;;;;;;;10.31;84.38;95747.28;4917610;29;20107;-78
2022/12/23 02:44:31;;;;;;;0.25;0.10;;;;;;;10.33;84.31;95741.88;4917984;29;20059;-79
2022/12/23 02:47:04;;;;;;;0.20;0.20;;;;;;;10.34;84.38;95735.66;4917675;29;20056;-79
2022/12/23 02:49:35;;;;;;;0.50;0.10;;;;;;;10.36;84.31;95742.28;4917618;29;20056;-78
2022/12/23 02:52:10;;;;;;;0.28;0.20;;;;;;;10.37;84.50;95736.06;4917281;29;20419;-79
2022/12/23 02:54:41;;;;;;;0.88;0.20;;;;;;;10.38;84.82;95740.25;4917510;29;20052;-79
2022/12/23 02:57:12;;;;;;;0.10;0.10;;;;;;;10.40;84.85;95737.47;4917426;29;20048;-79
2022/12/23 02:59:45;;;;;;;0.30;0.10;;;;;;;10.41;84.90;95736.47;4917162;29;20060;-78
2022/12/23 03:02:14;;;;;;;0.10;0.10;;;;;;;10.43;84.75;95747.47;4917293;29;20578;-78
2022/12/23 03:04:42;;;;;;;0.65;0.25;;;;;;;10.44;84.66;95742.06;4918078;29;20052;-78
2022/12/23 03:07:16;;;;;;;1.27;0.15;;;;;;;10.46;84.96;95752.31;4917207;29;20491;-79
2022/12/23 03:09:54;;;;;;;0.15;0.15;;;;;;;10.48;85.06;95760.72;4917102;29;20052;-78
2022/12/23 03:12:31;;;;;;;0.15;0.10;;;;;;;10.49;84.93;95752.72;4917271;29;20059;-78
2022/12/23 03:15:11;;;;;;;0.00;0.00;;;;;;;10.50;85.10;95761.34;4920029;29;20052;-78
2022/12/23 03:17:56;;;;;;;1.75;0.20;;;;;;;10.52;85.18;95759.34;4936282;29;20083;-78
2022/12/23 03:20:28;;;;;;;0.20;0.10;;;;;;;10.54;85.05;95757.31;4936546;29;20124;-79
2022/12/23 03:23:01;;;;;;;0.17;0.10;;;;;;;10.54;84.94;95770.38;4921199;29;20056;-78
2022/12/23 03:25:33;;;;;;;1.55;0.57;;;;;;;10.57;85.01;95763.94;4918688;29;20086;-78
2022/12/23 03:28:07;;;;;;;0.55;0.10;;;;;;;10.58;85.09;95761.09;4917430;29;20059;-78
2022/12/23 03:30:39;;;;;;;0.70;0.28;;;;;;;10.60;84.94;95766.91;4917526;29;20076;-78
2022/12/23 03:33:15;;;;;;;0.20;0.10;;;;;;;10.60;85.24;95772.13;4956112;23;20047;-79
2022/12/23 03:35:47;;;;;;;0.10;0.10;;;;;;;10.61;85.21;95765.13;4968675;29;20058;-80
2022/12/23 03:38:18;;;;;;;0.00;0.00;;;;;;;10.60;85.22;95774.75;4955619;29;20406;-79
2022/12/23 03:40:51;;;;;;;0.10;0.10;;;;;;;10.62;85.28;95774.56;4955047;29;20047;-79
2022/12/23 03:43:24;;;;;;;0.10;0.10;;;;;;;10.62;85.47;95785.78;4945649;29;20048;-79
2022/12/23 03:45:54;;;;;;;;;;;;;;;10.64;85.67;95783.78;4935981;29;20067;-79
2022/12/23 03:48:29;;;;;;;0.20;0.10;;;;;;;10.65;85.39;95797.63;4935732;29;19923;-80
2022/12/23 03:51:01;;;;;;;0.25;0.25;;;;;;;10.63;85.26;95791.81;4935760;29;20063;-79
2022/12/23 03:53:32;;;;;;;0.90;0.13;;;;;;;10.65;85.35;95797.63;4935613;29;20051;-80
2022/12/23 03:56:03;;;;;;;0.43;0.17;;;;;;;10.65;85.13;95803.66;4935801;29;20058;-79
2022/12/23 03:58:38;;;;;;;0.68;0.20;;;;;;;10.67;85.32;95812.09;4935685;29;20058;-79
2022/12/23 04:01:12;;;;;;;0.60;0.35;;;;;;;10.67;85.56;95795.59;4935498;29;20055;-79
2022/12/23 04:03:49;;;;;;;0.50;0.30;;;;;;;10.70;85.50;95808.25;4934623;29;20061;-79
2022/12/23 04:06:19;;;;;;;0.17;0.17;;;;;;;10.71;85.63;95813.28;4935490;29;20071;-79
2022/12/23 04:08:48;;;;;;;0.28;0.17;;;;;;;10.74;85.46;95821.72;4935107;29;20060;-80
2022/12/23 04:11:16;;;;;;;0.43;0.32;;;;;;;10.75;85.65;95818.09;4935192;29;20510;-80
2022/12/23 04:13:43;;;;;;;0.45;0.10;;;;;;;10.76;85.59;95817.06;4935304;29;20541;-79
2022/12/23 04:16:11;;;;;;;1.02;0.70;;;;;;;10.77;85.56;95811.66;4935130;29;20051;-80
2022/12/23 04:18:39;;;;;;;1.55;0.30;;;;;;;10.79;85.54;95824.50;4935399;29;20063;-80
2022/12/23 04:21:08;;;;;;;0.75;0.30;;;;;;;10.79;85.58;95833.13;4935309;29;20052;-79
2022/12/23 04:23:35;;;;;;;0.30;0.30;;;;;;;10.81;85.46;95830.34;4934966;29;20055;-80
2022/12/23 04:26:03;;;;;;;1.45;0.30;;;;;;;10.82;85.45;95835.34;4934827;29;20530;-79
2022/12/23 04:28:30;;;;;;;0.30;0.30;;;;;;;10.84;85.42;95833.31;4934686;29;20059;-80
2022/12/23 04:30:58;;;;;;;1.15;0.50;;;;;;;10.85;85.33;95834.16;4935390;29;20047;-79
2022/12/23 04:33:26;;;;;;;0.90;0.22;;;;;;;10.86;85.17;95859.22;4934930;29;20474;-79
2022/12/23 04:35:53;;;;;;;1.50;0.30;;;;;;;10.86;85.27;95844.34;4935265;29;20079;-79
2022/12/23 04:38:22;;;;;;;0.70;0.20;;;;;;;10.88;85.06;95849.38;4935283;29;20422;-79
2022/12/23 04:40:50;;;;;;;0.52;0.30;;;;;;;10.88;84.91;95847.56;4934783;29;20048;-80
2022/12/23 04:43:17;;;;;;;0.30;0.30;;;;;;;10.89;84.96;95851.00;4934870;29;20054;-80
2022/12/23 04:45:49;;;;;;;0.57;0.35;;;;;;;10.90;85.14;95852.59;4934808;29;20052;-79
2022/12/23 04:48:17;;;;;;;0.35;0.35;;;;;;;10.91;84.99;95852.41;4934598;29;20047;-79
2022/12/23 04:50:45;;;;;;;0.30;0.30;;;;;;;10.92;85.06;95867.03;4934910;29;20051;-79
2022/12/23 04:53:12;;;;;;;1.27;0.20;;;;;;;10.94;84.98;95866.84;4934634;29;20059;-79
2022/12/23 04:55:41;;;;;;;0.50;0.45;;;;;;;10.96;84.77;95857.00;4934843;29;20056;-79
2022/12/23 04:58:09;;;;;;;0.63;0.40;;;;;;;10.95;84.68;95868.44;4934736;29;20043;-80
2022/12/23 05:00:36;;;;;;;0.43;0.38;;;;;;;10.97;84.75;95866.44;4934965;29;20494;-79
2022/12/23 05:03:06;;;;;;;0.50;0.40;;;;;;;10.99;84.64;95874.06;4934637;29;20143;-79
2022/12/23 05:05:34;;;;;;;1.42;0.70;;;;;;;10.99;84.54;95868.84;4934763;29;20083;-79
2022/12/23 05:08:03;;;;;;;0.45;0.45;;;;;;;10.99;84.59;95867.03;4934590;29;20058;-79
2022/12/23 05:10:31;;;;;;;0.30;0.30;;;;;;;10.99;84.49;95869.66;4946697;29;20051;-80
2022/12/23 05:13:00;;;;;;;0.47;0.47;;;;;;;11.01;84.51;95867.63;4952457;29;20058;-80
2022/12/23 05:15:28;;;;;;;0.50;0.50;;;;;;;11.01;84.33;95870.25;4953829;29;20115;-80
2022/12/23 05:17:55;;;;;;;0.40;0.40;;;;;;;11.03;84.43;95877.88;4946535;29;20051;-80
2022/12/23 05:20:23;;;;;;;0.57;0.52;;;;;;;11.03;84.38;95880.50;4939198;29;20048;-79
2022/12/23 05:22:50;;;;;;;0.45;0.45;;;;;;;11.03;84.33;95883.91;4938365;29;20487;-80
2022/12/23 05:25:18;;;;;;;0.50;0.50;;;;;;;11.05;84.27;95886.31;4938278;29;20048;-79
2022/12/23 05:27:45;;;;;;;0.40;0.40;;;;;;;11.04;84.15;95880.31;4938201;29;20537;-79
2022/12/23 05:30:14;;;;;;;0.47;0.47;;;;;;;11.05;84.08;95881.88;4938508;29;20051;-79
2022/12/23 05:32:42;;;;;;;0.65;0.65;;;;;;;11.05;84.21;95883.69;4937794;29;20066;-79
2022/12/23 05:35:09;;;;;;;0.40;0.40;;;;;;;11.05;84.05;95888.94;4937557;29;20058;-79
2022/12/23 05:37:37;;;;;;;0.55;0.52;;;;;;;11.05;84.08;95894.94;4923886;29;20052;-79
2022/12/23 05:40:05;;;;;;;0.70;0.68;;;;;;;11.05;84.17;95889.72;4921027;29;20056;-79
2022/12/23 05:42:33;;;;;;;0.30;0.30;;;;;;;11.06;84.12;95893.13;4928059;29;20095;-80
2022/12/23 05:45:01;;;;;;;0.60;0.60;;;;;;;11.06;84.15;95896.56;4939675;29;20051;-79
2022/12/23 05:47:29;;;;;;;0.55;0.55;;;;;;;11.07;84.12;95899.97;4936986;29;20403;-79
2022/12/23 05:49:57;;;;;;;0.45;0.45;;;;;;;11.07;84.23;95905.97;4928916;29;20054;-79
2022/12/23 05:52:25;;;;;;;2.20;0.70;;;;;;;11.07;84.14;95905.97;4944133;28;20051;-79
2022/12/23 05:54:52;;;;;;;0.90;0.90;;;;;;;11.06;84.03;95907.00;4933518;29;20062;-78
2022/12/23 05:57:20;;;;;;;0.60;0.60;;;;;;;11.07;84.13;95913.03;4957226;29;20071;-80
2022/12/23 05:59:47;;;;;;;0.68;0.60;;;;;;;11.05;84.21;95923.66;4944030;29;20051;-78
2022/12/23 06:02:15;;;;;;;0.52;0.52;;;;;;;11.07;84.15;95926.88;4953525;29;20060;-79
2022/12/23 06:04:44;;;;;;;0.68;0.65;;;;;;;11.05;84.34;95928.88;4937748;29;20509;-80
2022/12/23 06:07:11;;;;;;;1.45;0.63;;;;;;;11.06;84.35;95938.31;4935788;29;20520;-79
2022/12/23 06:09:39;;;;;;;0.70;0.70;;;;;;;11.04;84.45;95940.31;4938649;29;20126;-78
2022/12/23 06:12:07;;;;;;;1.23;0.93;;;;;;;11.04;84.35;95942.94;4937277;29;20130;-79
2022/12/23 06:14:34;;;;;;;1.35;1.00;;;;;;;11.04;84.45;95942.94;4937774;29;20056;-79
2022/12/23 06:17:04;;;;;;;1.20;0.98;;;;;;;11.03;84.43;95932.69;4942026;29;20056;-80
2022/12/23 06:19:36;;;;;;;1.75;0.90;;;;;;;11.03;84.46;95940.53;4951725;29;20075;-80
2022/12/23 06:22:16;;;;;;;1.40;1.30;;;;;;;11.02;84.51;95944.94;4946565;29;20135;-81
2022/12/23 06:24:46;;;;;;;2.17;1.13;;;;;;;11.03;84.46;95949.16;4943365;29;20067;-80
2022/12/23 06:27:14;;;;;;;0.85;0.85;;;;;;;11.03;84.36;95951.75;4957019;28;20051;-77
2022/12/23 06:29:41;;;;;;;2.22;1.15;;;;;;;11.03;84.29;95946.53;4921336;29;20111;-76
2022/12/23 06:32:09;;;;;;;2.40;1.70;;;;;;;11.03;84.45;95949.16;4918041;29;20056;-78
2022/12/23 06:34:37;;;;;;;1.55;1.45;;;;;;;11.04;84.42;95950.78;4916416;29;20048;-78
2022/12/23 06:37:05;;;;;;;1.75;1.20;;;;;;;11.04;84.29;95955.16;4916459;29;20056;-78
2022/12/23 06:39:33;;;;;;;1.98;1.75;;;;;;;11.04;84.27;95957.78;4916052;29;20135;-79
2022/12/23 06:42:00;;;;;;;1.30;1.20;;;;;;;11.04;84.29;95963.00;4916127;29;20052;-78
2022/12/23 06:44:28;;;;;;;1.63;1.52;;;;;;;11.04;84.29;95952.56;4916211;29;20044;-78
2022/12/23 06:46:55;;;;;;;1.38;1.13;;;;;;;11.02;84.39;95952.78;4916042;29;20052;-78
2022/12/23 06:49:23;;;;;;;1.00;1.00;;;;;;;11.03;84.28;95962.19;4916710;29;20510;-79
2022/12/23 06:51:50;;;;;;;0.82;0.82;;;;;;;11.02;84.17;95958.00;4917654;29;20427;-78
2022/12/23 06:54:19;;;;;;;1.10;1.00;;;;;;;11.03;84.30;95971.84;4917599;29;20051;-78
2022/12/23 06:56:47;;;;;;;1.33;1.05;;;;;;;11.02;84.05;95965.00;4917333;29;20526;-78
2022/12/23 06:59:14;;;;;;;0.95;0.80;;;;;;;11.00;84.10;95967.81;4917113;29;20052;-78
2022/12/23 07:01:42;;;;;;;1.85;0.90;;;;;;;11.00;83.97;95959.16;4917136;29;20062;-79
2022/12/23 07:04:10;;;;;;;1.30;1.20;;;;;;;11.01;83.96;95964.19;4917637;29;20131;-78
2022/12/23 07:06:38;;;;;;;1.35;0.85;;;;;;;11.00;83.87;95957.38;4917182;29;20058;-79
2022/12/23 07:09:06;;;;;;;0.90;0.90;;;;;;;11.00;84.00;95970.44;4917079;29;20056;-79
2022/12/23 07:11:35;;;;;;;1.30;1.20;;;;;;;11.01;84.05;95979.84;4917195;29;20048;-79
2022/12/23 07:14:02;;;;;;;0.88;0.88;;;;;;;11.03;83.92;95982.28;4917005;29;20052;-78
2022/12/23 07:16:30;;;;;;;1.30;0.88;;;;;;;11.02;83.82;95971.03;4917206;29;20524;-78
2022/12/23 07:18:57;;;;;;;0.85;0.85;;;;;;;11.00;83.76;95967.81;4916804;29;20135;-78
2022/12/23 07:21:25;;;;;;;3.60;1.48;;;;;;;11.01;83.80;95974.63;4916791;29;20048;-78
2022/12/23 07:23:56;;;;;;;1.00;1.00;;;;;;;11.02;83.64;95989.31;4916903;29;20058;-78
2022/12/23 07:26:24;;;;;;;0.98;0.90;;;;;;;11.02;83.62;95991.91;4916828;29;20052;-78
2022/12/23 07:28:53;;;;;;;13.75;6.97;;;;;;;11.02;83.69;95989.31;4916645;29;20091;-79
2022/12/23 07:31:20;;;;;;;13.52;8.23;;;;;;;11.01;83.31;96005.94;4917534;29;20063;-79
2022/12/23 07:33:48;;;;;;;9.40;6.85;;;;;;;11.02;83.66;96001.53;4917277;29;20044;-79
2022/12/23 07:36:15;;;;;;;4.60;2.97;;;;;;;11.01;83.55;96000.72;4916851;29;20142;-79
2022/12/23 07:38:43;;;;;;;2.10;1.90;;;;;;;11.01;83.68;96005.94;4916372;29;20075;-77
2022/12/23 07:41:10;;;;;;;2.67;2.10;;;;;;;11.01;83.88;96005.94;4916806;29;20055;-78
2022/12/23 07:43:38;;;;;;;2.97;1.40;;;;;;;11.04;83.90;96007.34;4916603;29;20052;-78
2022/12/23 07:46:09;;;;;;;1.75;1.63;;;;;;;11.03;83.97;96003.94;4916628;29;20142;-78
2022/12/23 07:48:36;;;;;;;2.53;1.90;;;;;;;11.04;83.71;96000.34;4916260;29;20056;-78
2022/12/23 07:51:05;;;;;;;1.25;1.13;;;;;;;11.05;83.77;95999.34;4916806;29;20111;-78
2022/12/23 07:53:32;;;;;;;1.95;1.75;;;;;;;11.07;83.67;96001.75;4916107;29;20052;-78
2022/12/23 07:56:00;;;;;;;1.20;1.10;;;;;;;11.06;83.49;95995.75;4916502;29;20130;-78
2022/12/23 07:58:27;;;;;;;2.25;1.25;;;;;;;11.07;83.64;95999.16;4916208;29;20085;-78
2022/12/23 08:01:02;;;;;;;1.50;1.40;;;;;;;11.08;83.69;95991.09;4916201;29;20058;-78
2022/12/23 08:03:31;;;;;;;2.45;1.33;;;;;;;11.09;83.60;95989.31;4916246;29;20127;-78
2022/12/23 08:06:00;;;;;;;1.15;1.08;;;;;;;11.10;83.39;95994.31;4916373;29;20067;-79
2022/12/23 08:08:28;;;;;;;1.33;1.23;;;;;;;11.09;83.45;95997.94;4915897;29;20048;-78
2022/12/23 08:11:00;;;;;;;1.55;1.45;;;;;;;11.10;83.54;95991.69;4916048;29;20059;-78
2022/12/23 08:13:28;;;;;;;1.73;1.63;;;;;;;11.11;83.51;95995.94;4915818;29;20052;-78
2022/12/23 08:15:56;;;;;;;1.92;1.75;;;;;;;11.11;83.49;95995.94;4916108;29;20052;-78
2022/12/23 08:18:25;;;;;;;3.05;1.67;;;;;;;11.12;83.47;95991.50;4916062;29;20052;-78
2022/12/23 08:20:58;;;;;;;2.25;2.05;;;;;;;11.13;83.49;96001.75;4915898;29;20063;-78
2022/12/23 08:23:27;;;;;;;1.77;1.67;;;;;;;11.13;83.43;96014.81;4927691;29;20063;-79
2022/12/23 08:26:03;;;;;;;2.63;1.92;;;;;;;11.14;83.47;96031.28;4928335;29;20052;-78
2022/12/23 08:28:31;;;;;;;2.35;2.15;;;;;;;11.16;83.53;96041.53;4922640;29;20135;-78
2022/12/23 08:31:06;;;;;;;1.83;1.73;;;;;;;11.16;83.47;96039.72;4916630;29;20079;-78
2022/12/23 08:33:35;;;;;;;2.63;2.00;;;;;;;11.15;83.29;96027.69;4916028;29;20060;-78
2022/12/23 08:36:06;;;;;;;1.67;1.50;;;;;;;11.17;83.46;96040.50;4916256;29;20074;-79
2022/12/23 08:38:34;;;;;;;1.70;1.60;;;;;;;11.17;83.48;96040.50;4915863;29;20063;-78
2022/12/23 08:41:02;;;;;;;2.45;2.00;;;;;;;11.17;83.60;96030.06;4916137;29;20067;-78
2022/12/23 08:43:29;;;;;;;2.35;1.70;;;;;;;11.17;83.50;96025.63;4916092;29;20451;-78
2022/12/23 08:46:02;;;;;;;;;;;;;;;11.19;83.84;96030.66;4916555;29;20056;-78
2022/12/23 08:48:30;;;;;;;4.78;1.92;;;;;;;11.18;83.31;96021.25;4915730;29;19923;-78
2022/12/23 08:51:04;;;;;;;2.15;1.98;;;;;;;11.16;83.64;96012.81;4917889;29;20093;-79
2022/12/23 08:53:32;;;;;;;3.40;2.30;;;;;;;11.16;83.50;96012.81;4926659;29;20076;-80
2022/12/23 08:56:02;;;;;;;2.45;2.25;;;;;;;11.17;83.72;96017.00;4929740;29;20419;-79
2022/12/23 08:58:30;;;;;;;1.92;1.70;;;;;;;11.17;83.80;96020.41;4928412;29;20052;-79
2022/12/23 09:00:58;;;;;;;3.10;2.15;;;;;;;11.19;83.62;96022.84;4928404;29;20056;-79
2022/12/23 09:03:25;;;;;;;2.10;1.90;;;;;;;11.20;83.85;96024.47;4928587;29;20048;-79
2022/12/23 09:05:53;;;;;;;3.72;2.03;;;;;;;11.21;83.84;96021.63;4924023;29;20471;-78
2022/12/23 09:08:22;;;;;;;3.78;2.33;;;;;;;11.21;84.02;96018.22;4919632;29;20127;-79
2022/12/23 09:10:49;;;;;;;2.60;2.00;;;;;;;11.21;84.07;96016.41;4919571;29;20048;-78
2022/12/23 09:13:17;;;;;;;2.03;1.90;;;;;;;11.23;84.08;96019.63;4919539;29;20205;-78
2022/12/23 09:15:57;;;;;;;1.60;1.50;;;;;;;11.24;84.06;96021.25;4919203;29;20095;-78
2022/12/23 09:18:25;;;;;;;1.75;1.63;;;;;;;11.25;84.10;96029.88;4918953;29;20048;-79
2022/12/23 09:20:57;;;;;;;1.65;1.55;;;;;;;11.27;84.12;96031.28;4919059;29;20048;-78
2022/12/23 09:23:26;;;;;;;;;;;;;;;11.29;84.20;96021.44;4920000;29;20052;-78
2022/12/23 09:25:54;;;;;;;1.58;1.48;;;;;;;11.30;83.85;96024.84;4919056;29;19929;-79
2022/12/23 09:28:22;;;;;;;1.48;1.30;;;;;;;11.29;83.80;96026.66;4919233;29;20051;-79
2022/12/23 09:30:50;;;;;;;1.45;1.17;;;;;;;11.31;83.86;96021.25;4918915;29;20062;-78
2022/12/23 09:33:18;;;;;;;1.75;1.30;;;;;;;11.31;83.94;96011.59;4943439;23;20043;-80
2022/12/23 09:35:46;;;;;;;1.00;1.00;;;;;;;11.32;83.84;96015.00;4937764;29;20106;-79
2022/12/23 09:38:13;;;;;;;1.38;1.27;;;;;;;11.33;83.87;96019.25;4937518;29;20062;-80
2022/12/23 09:40:42;;;;;;;1.30;1.20;;;;;;;11.34;83.83;96019.03;4937765;29;20516;-80
2022/12/23 09:43:20;;;;;;;0.75;0.63;;;;;;;11.36;84.09;96021.44;4932723;29;20144;-80
2022/12/23 09:45:58;;;;;;;0.73;0.73;;;;;;;11.37;84.04;96020.47;4918718;29;20052;-80
2022/12/23 09:48:29;;;;;;;1.02;0.88;;;;;;;11.39;83.84;96013.22;4918365;29;20066;-81
2022/12/23 09:50:57;;;;;;;1.75;0.52;;;;;;;11.41;83.74;96011.19;4918807;29;20434;-80
2022/12/23 09:53:32;;;;;;;1.55;0.75;;;;;;;11.42;83.93;96004.97;4918275;29;20423;-80
2022/12/23 09:56:08;;;;;;;0.52;0.52;;;;;;;11.45;83.80;96011.59;4918618;29;20059;-81
2022/12/23 09:58:41;;;;;;;0.90;0.50;;;;;;;11.45;83.67;96017.63;4918374;29;20048;-80
2022/12/23 10:01:16;;;;;;;0.40;0.40;;;;;;;11.47;83.78;96020.03;4918316;29;20055;-80
2022/12/23 10:04:03;;;;;;;0.38;0.30;;;;;;;11.47;83.96;96013.00;4917694;29;20427;-80
2022/12/23 10:06:34;;;;;;;1.75;0.50;;;;;;;11.49;83.65;96021.44;4918451;29;20088;-80
2022/12/23 10:09:04;;;;;;;0.82;0.30;;;;;;;11.49;83.74;96021.44;4918150;29;20502;-80
2022/12/23 10:11:37;;;;;;;0.30;0.30;;;;;;;11.50;83.65;96020.47;4918643;29;20048;-80
2022/12/23 10:14:14;;;;;;;0.38;0.38;;;;;;;11.51;83.71;96003.75;4918152;29;20063;-80
2022/12/23 10:16:46;;;;;;;0.60;0.60;;;;;;;11.53;83.75;95999.16;4918347;29;20147;-80
2022/12/23 10:19:17;;;;;;;0.30;0.30;;;;;;;11.54;83.66;95995.53;4918226;29;20052;-80
2022/12/23 10:21:48;;;;;;;1.15;0.28;;;;;;;11.55;83.55;95994.53;4918143;29;20051;-80
2022/12/23 10:24:21;;;;;;;0.50;0.50;;;;;;;11.57;83.45;95994.31;4917978;29;20052;-81
2022/12/23 10:26:52;;;;;;;;;;;;;;;11.60;83.72;95988.69;4918410;29;20044;-80
2022/12/23 10:29:22;;;;;;;0.32;0.20;;;;;;;11.60;83.58;95993.13;4917944;29;19926;-80
2022/12/23 10:32:04;;;;;;;0.60;0.30;;;;;;;11.60;83.42;95993.13;4917852;29;20056;-79
2022/12/23 10:34:44;;;;;;;0.70;0.20;;;;;;;11.61;83.62;95985.09;4917775;29;20507;-80
2022/12/23 10:37:21;;;;;;;0.63;0.40;;;;;;;11.62;83.65;95985.88;4917844;29;20056;-81
2022/12/23 10:40:07;;;;;;;3.80;1.05;;;;;;;11.63;83.73;95983.06;4917437;29;20491;-81
2022/12/23 10:42:40;;;;;;;4.18;2.50;;;;;;;11.64;83.69;95983.88;4917714;29;20056;-80
2022/12/23 10:45:26;;;;;;;3.15;2.00;;;;;;;11.66;84.15;95981.84;4917558;29;20052;-80
2022/12/23 10:48:04;;;;;;;1.63;1.20;;;;;;;11.67;83.91;95975.63;4917163;29;20056;-80
2022/12/23 10:50:53;;;;;;;1.55;1.38;;;;;;;11.69;83.70;95968.38;4917365;29;20139;-80
2022/12/23 10:53:31;;;;;;;1.05;0.68;;;;;;;11.71;83.73;95963.75;4917520;29;20062;-80
2022/12/23 10:56:00;;;;;;;0.40;0.40;;;;;;;11.71;83.49;95963.75;4917341;29;20090;-80
2022/12/23 10:58:30;;;;;;;0.57;0.32;;;;;;;11.72;83.54;95962.75;4917333;29;20059;-81
2022/12/23 11:01:00;;;;;;;0.38;0.38;;;;;;;11.72;83.59;95970.59;4922445;29;20059;-81
2022/12/23 11:03:31;;;;;;;0.80;0.80;;;;;;;11.74;83.59;95966.78;4926814;29;20530;-81
2022/12/23 11:06:01;;;;;;;0.73;0.50;;;;;;;11.76;83.44;95961.31;4923381;29;20055;-80
2022/12/23 11:08:31;;;;;;;1.25;0.80;;;;;;;11.77;83.49;95946.47;4917941;29;20063;-81
2022/12/23 11:11:00;;;;;;;1.05;0.80;;;;;;;11.78;83.61;95946.25;4917996;29;20055;-79
2022/12/23 11:13:36;;;;;;;1.30;1.20;;;;;;;11.80;83.76;95944.22;4916939;29;20205;-80
2022/12/23 11:16:15;;;;;;;1.27;0.77;;;;;;;11.81;83.89;95938.00;4917181;29;20426;-80
2022/12/23 11:18:54;;;;;;;0.95;0.95;;;;;;;11.80;83.83;95940.81;4917084;29;20052;-80
2022/12/23 11:21:22;;;;;;;2.65;1.30;;;;;;;11.80;83.78;95930.38;4917301;29;20052;-80
2022/12/23 11:24:06;;;;;;;1.00;0.90;;;;;;;11.81;84.17;95932.00;4917050;29;20052;-80
2022/12/23 11:26:35;;;;;;;1.55;1.35;;;;;;;11.80;84.09;95928.56;4918144;29;20126;-80
2022/12/23 11:29:09;;;;;;;1.48;1.10;;;;;;;11.81;84.32;95929.38;4916600;29;20140;-81
2022/12/23 11:31:37;;;;;;;2.15;1.00;;;;;;;11.81;84.14;95921.53;4916733;29;20573;-80
2022/12/23 11:34:12;;;;;;;1.10;1.00;;;;;;;11.81;84.35;95927.56;4916934;29;20423;-80
2022/12/23 11:36:41;;;;;;;2.03;1.50;;;;;;;11.80;84.45;95920.72;4916847;29;20052;-80
2022/12/23 11:39:22;;;;;;;2.28;1.50;;;;;;;11.81;84.53;95916.31;4916536;29;20056;-81
2022/12/23 11:41:53;;;;;;;1.23;1.10;;;;;;;11.81;84.44;95911.09;4916769;29;20059;-80
2022/12/23 11:44:29;;;;;;;1.70;1.45;;;;;;;11.80;84.65;95905.03;4916856;29;20052;-80
2022/12/23 11:46:57;;;;;;;2.90;1.80;;;;;;;11.80;84.58;95894.59;4916926;29;20430;-80
2022/12/23 11:49:26;;;;;;;3.42;1.08;;;;;;;11.81;84.68;95890.19;4916499;29;20427;-81
2022/12/23 11:52:01;;;;;;;1.05;0.95;;;;;;;11.81;84.52;95890.97;4916606;29;20140;-80
2022/12/23 11:54:29;;;;;;;1.95;1.52;;;;;;;11.83;84.49;95898.59;4916599;29;20056;-80
2022/12/23 11:56:58;;;;;;;2.47;1.77;;;;;;;11.82;84.74;95889.97;4917773;29;20059;-80
2022/12/23 11:59:33;;;;;;;2.60;1.65;;;;;;;11.83;84.75;95878.50;4917175;29;20135;-80
2022/12/23 12:02:09;;;;;;;3.33;1.75;;;;;;;11.83;84.94;95873.28;4917757;29;20056;-81
2022/12/23 12:04:38;;;;;;;1.58;1.48;;;;;;;11.83;84.70;95865.44;4917494;29;20063;-80
2022/12/23 12:07:07;;;;;;;1.38;1.25;;;;;;;11.84;84.94;95859.19;4916643;29;20055;-80
2022/12/23 12:09:39;;;;;;;2.15;1.60;;;;;;;11.85;85.13;95860.81;4916292;29;20058;-80
2022/12/23 12:12:15;;;;;;;1.73;1.20;;;;;;;11.85;85.48;95854.75;4916381;29;20056;-81
2022/12/23 12:14:46;;;;;;;5.03;1.50;;;;;;;11.86;85.25;95849.34;4916423;29;20044;-80
2022/12/23 12:17:20;;;;;;;2.00;1.43;;;;;;;11.87;85.35;95837.91;4916172;29;20044;-80
2022/12/23 12:19:58;;;;;;;1.85;1.42;;;;;;;11.88;85.23;95839.50;4916129;29;20499;-81